RCSS/TSA METAR and TAF weather

Enter ICAO airport designator
Station Type Date Time Source
RCSS METAR 2023/05/28 02:00 UTC NOAA

RCSS 280200Z 10011KT 070V130 9999 FEW020 SCT035 33/24 Q1010 NOSIG RMK A2983


Station Type Date Time Source
RCSS Decoded METAR 2023/05/28 02:00 UTC NOAA

Sungshan / Taipei, Taiwan (RCSS) 25-04N 121-33E
May 27, 2023 - 10:00 PM EDT / 2023.05.28 0200 UTC
Wind: from the E (100 degrees) at 13 MPH (11 KT) (direction variable):0
Visibility: greater than 7 mile(s):0
Sky conditions: partly cloudy
Temperature: 91 F (33 C)
Heat index: 101.5 F (38.6 C):1
Dew Point: 75 F (24 C)
Relative Humidity: 59%
Pressure (altimeter): 29.83 in. Hg (1010 hPa)
ob: RCSS 280200Z 10011KT 070V130 9999 FEW020 SCT035 33/24 Q1010 NOSIG RMK A2983
cycle: 2

Station Type Date Time Source
RCSS TAF 2023/05/27 18:03 UTC NOAA

TAF RCSS 271700Z 2718/2818 09012KT 9999 FEW015
TEMPO 2718/2724 07005KT
TEMPO 2804/2810 08017G27KT
TEMPO 2812/2818 FEW010 BKN020

Example: see airport list